Country
Station

 

Weather  for  Charleroi/Gosselies  -  Belgium    Belgium

  
6 °C (43 °F)
    
 
 

Current METAR for Charleroi/Gosselies is :

EBCI 240220Z 20003KT 9999 -RA FEW042 BKN048 06/03 Q1025 NOSIG

 

This is a report for Charleroi/Gosselies - Belgium.
 
The report was made 28 minutes ago, at 02:20 UTC .
The wind was blowing at a speed of 1.5 meters per second (3.5 miles per hour) from south/southwest (200°).
 
The temperature was 6 °C (43 °F), with a dew-point at 3 °C (37 °F).
The atmospheric pressure was 1025 hPa (30.27 inHg).
The relative humidity was 81.0%.
 
There were a few clouds at a height of 1280 meters (4200 feet) and broken clouds at a height of 1463 meters (4800 feet).
 
The overall visibility was greater than 10 kilometers (6.2 miles).
 
Currently light rain.

 
 
 
 

Country :   A   B   C   D   E   F   G   H   I   J   K   L   M   N   O   P   Q   R   S   T   U   V   W   Y   Z

 

Site Info  |  Disclaimer  |  Credits  |  Privacy
Contact us  |  Add to favorites
© 2013-2020 METARs - All rights reserved